Newgulf, Texas
Current Conditions -  °F | °C
As of 10:35 AM on Tuesday 21 Oct 2014 (Local Time) from KARM Reporting Station
Clear Clear  
Wind Chill: 75°   Ceiling: Unl
Heat Index: 75°   Visibility: 10mi
Dew Point: 58°   Wind: 9mph
Humidity: 54%   Direction: 60°ENE
Pressure: 30.07"   Gusts: NA
Location:  29.25°N, 95.9°W
Report Text: KARM 211535Z AUTO 06008KT 10SM CLR 24/14 A3007 RMK AO2 T02410142
Loading
Personal Weather Stations






























Interactive Weather Map
Tropical Storm Tracking
New forecast layout! Learn more

10-Day Weather Forecast

Advertisements
Track Severe Weather on mobile